KHLG/HLG METAR and TAF weather

Enter ICAO airport designator
Station Type Date Time Source
KHLG METAR 2022/12/10 01:53 UTC NOAA

KHLG 100153Z 07007KT 10SM OVC055 04/M02 A3013 RMK AO2 SLP216 T00441022


Station Type Date Time Source
KHLG Decoded METAR 2022/12/10 01:53 UTC NOAA

WHEELING OHIO COUNTY AIRPORT, WV, United States (KHLG) 40-10N 080-39W 372M
Dec 09, 2022 - 08:53 PM EST / 2022.12.10 0153 UTC
Wind: from the ENE (070 degrees) at 8 MPH (7 KT):0
Visibility: 10 mile(s):0
Sky conditions: overcast
Temperature: 39.9 F (4.4 C)
Dew Point: 28.0 F (-2.2 C)
Relative Humidity: 62%
Pressure (altimeter): 30.13 in. Hg (1020 hPa)
ob: KHLG 100153Z 07007KT 10SM OVC055 04/M02 A3013 RMK AO2 SLP216 T00441022
cycle: 2

Station Type Date Time Source
KHLG TAF 2022/12/09 18:34 UTC NOAA

TAF KHLG 091732Z 0918/1018 07006KT P6SM SKC
FM100400 08005KT P6SM VCSH BKN040
FM100900 07005KT P6SM -SHRA OVC025
FM101300 08005KT P6SM OVC020

Example: see airport list